createdAt,value
2022-09-09T00:01:32.442Z,98305.03
2022-09-09T00:04:05.580Z,98302.53
2022-09-09T00:06:37.341Z,98309.72
2022-09-09T00:09:14.047Z,98298.50
2022-09-09T00:11:45.388Z,98298.50
2022-09-09T00:14:25.316Z,98302.38
2022-09-09T00:17:01.036Z,98299.34
2022-09-09T00:19:41.085Z,98294.50
2022-09-09T00:22:18.240Z,98290.16
2022-09-09T00:24:47.993Z,98295.84
2022-09-09T00:27:28.220Z,98291.50
2022-09-09T00:29:59.708Z,98288.28
2022-09-09T00:32:32.288Z,98291.13
2022-09-09T00:35:14.239Z,98286.44
2022-09-09T00:37:43.009Z,98283.81
2022-09-09T00:40:24.355Z,98279.75
2022-09-09T00:43:01.931Z,98287.75
2022-09-09T00:45:53.207Z,98283.25
2022-09-09T00:48:25.931Z,98286.41
2022-09-09T00:50:59.368Z,98283.56
2022-09-09T00:53:35.919Z,98287.75
2022-09-09T00:56:13.695Z,98285.59
2022-09-09T00:58:44.664Z,98282.88
2022-09-09T01:01:14.452Z,98291.47
2022-09-09T01:03:49.635Z,98290.91
2022-09-09T01:06:24.678Z,98287.72
2022-09-09T01:09:12.045Z,98288.72
2022-09-09T01:11:53.926Z,98287.34
2022-09-09T01:14:33.162Z,98282.16
2022-09-09T01:17:06.494Z,98276.66
2022-09-09T01:19:46.584Z,98274.66
2022-09-09T01:22:28.297Z,98276.66
2022-09-09T01:25:17.663Z,98270.63
2022-09-09T01:28:10.876Z,98275.97
2022-09-09T01:30:42.469Z,98286.31
2022-09-09T01:33:16.957Z,98291.34
2022-09-09T01:35:51.722Z,98293.66
2022-09-09T01:38:20.631Z,98294.66
2022-09-09T01:40:53.370Z,98296.34
2022-09-09T01:43:28.548Z,98301.03
2022-09-09T01:46:02.553Z,98295.28
2022-09-09T01:48:32.338Z,98295.44
2022-09-09T01:51:06.162Z,98301.50
2022-09-09T01:53:33.937Z,98296.94
2022-09-09T01:56:24.406Z,98297.41
2022-09-09T01:59:10.360Z,98301.13
2022-09-09T02:01:48.459Z,98296.28
2022-09-09T02:04:31.195Z,98293.00
2022-09-09T02:06:59.963Z,98290.31
2022-09-09T02:09:32.587Z,98283.56
2022-09-09T02:12:08.260Z,98273.44
2022-09-09T02:14:51.226Z,98283.09
2022-09-09T02:17:26.872Z,98290.31
2022-09-09T02:20:07.171Z,98293.94
2022-09-09T02:22:46.634Z,98302.53
2022-09-09T02:25:19.819Z,98298.50
2022-09-09T02:27:51.919Z,98295.50
2022-09-09T02:30:22.256Z,98288.47
2022-09-09T02:32:59.024Z,98282.13
2022-09-09T02:35:40.635Z,98291.31
2022-09-09T02:38:14.213Z,98305.50
2022-09-09T02:40:46.694Z,98303.19
2022-09-09T02:43:17.297Z,98300.44
2022-09-09T02:45:55.224Z,98301.53
2022-09-09T02:48:32.265Z,98303.19
2022-09-09T02:51:08.089Z,98299.59
2022-09-09T02:53:48.885Z,98286.53
2022-09-09T02:56:19.179Z,98294.97
2022-09-09T02:58:50.393Z,98273.69
2022-09-09T03:01:19.681Z,98282.72
2022-09-09T03:03:47.536Z,98279.53
2022-09-09T03:06:17.803Z,98269.03
2022-09-09T03:08:50.846Z,98262.19
2022-09-09T03:11:23.820Z,98271.09
2022-09-09T03:13:51.693Z,98266.13
2022-09-09T03:16:23.860Z,98256.41
2022-09-09T03:18:54.079Z,98266.78
2022-09-09T03:21:22.278Z,98266.44
2022-09-09T03:23:50.856Z,98274.94
2022-09-09T03:26:18.760Z,98276.94
2022-09-09T03:28:48.446Z,98274.47
2022-09-09T03:31:20.765Z,98276.09
2022-09-09T03:33:50.112Z,98275.28
2022-09-09T03:36:20.194Z,98275.56
2022-09-09T03:38:47.934Z,98273.09
2022-09-09T03:41:15.758Z,98279.97
2022-09-09T03:43:44.181Z,98276.16
2022-09-09T03:46:12.052Z,98286.31
2022-09-09T03:48:40.443Z,98290.88
2022-09-09T03:51:09.602Z,98289.50
2022-09-09T03:53:39.005Z,98289.34
2022-09-09T03:56:08.622Z,98292.13
2022-09-09T03:58:37.728Z,98285.13
2022-09-09T04:01:10.605Z,98284.44
2022-09-09T04:03:39.880Z,98280.59
2022-09-09T04:06:12.814Z,98289.34
2022-09-09T04:08:41.150Z,98288.03
2022-09-09T04:11:09.660Z,98288.75
2022-09-09T04:13:40.778Z,98295.41
2022-09-09T04:16:14.064Z,98281.91
2022-09-09T04:18:43.106Z,98287.22
2022-09-09T04:21:13.040Z,98285.38
2022-09-09T04:23:41.677Z,98292.78
2022-09-09T04:26:10.989Z,98304.16
2022-09-09T04:28:40.472Z,98309.84
2022-09-09T04:31:19.646Z,98306.84
2022-09-09T04:33:49.298Z,98301.97
2022-09-09T04:36:20.276Z,98312.19
2022-09-09T04:38:50.508Z,98309.91
2022-09-09T04:41:18.894Z,98306.94
2022-09-09T04:43:49.933Z,98301.00
2022-09-09T04:46:18.883Z,98300.84
2022-09-09T04:48:50.385Z,98307.19
2022-09-09T04:51:20.668Z,98310.50
2022-09-09T04:53:51.748Z,98304.19
2022-09-09T04:56:20.422Z,98306.19
2022-09-09T04:58:57.649Z,98309.19
2022-09-09T05:01:35.187Z,98301.50
2022-09-09T05:04:05.406Z,98310.56
2022-09-09T05:06:37.239Z,98303.00
2022-09-09T05:09:06.105Z,98313.19
2022-09-09T05:11:37.678Z,98315.91
2022-09-09T05:14:18.537Z,98327.25
2022-09-09T05:16:48.072Z,98323.72
2022-09-09T05:19:16.101Z,98325.59
2022-09-09T05:21:48.311Z,98326.59
2022-09-09T05:24:19.632Z,98318.88
2022-09-09T05:26:49.535Z,98326.44
2022-09-09T05:29:19.568Z,98333.69
2022-09-09T05:31:48.109Z,98325.03
2022-09-09T05:34:20.550Z,98328.59
2022-09-09T05:36:49.955Z,98330.75
2022-09-09T05:39:18.118Z,98329.41
2022-09-09T05:41:46.099Z,98328.25
2022-09-09T05:44:14.440Z,98330.94
2022-09-09T05:46:42.427Z,98334.59
2022-09-09T05:49:10.906Z,98328.41
2022-09-09T05:51:40.541Z,98337.13
2022-09-09T05:54:16.492Z,98335.28
2022-09-09T05:56:51.839Z,98339.28
2022-09-09T05:59:21.042Z,98332.75
2022-09-09T06:01:49.695Z,98343.63
2022-09-09T06:04:33.228Z,98350.31
2022-09-09T06:07:02.895Z,98345.78
2022-09-09T06:09:33.385Z,98349.28
2022-09-09T06:12:01.408Z,98343.47
2022-09-09T06:14:29.437Z,98341.44
2022-09-09T06:17:00.752Z,98340.78
2022-09-09T06:19:32.494Z,98343.41
2022-09-09T06:22:01.721Z,98348.97
2022-09-09T06:24:36.863Z,98342.91
2022-09-09T06:27:06.512Z,98346.94
2022-09-09T06:29:36.795Z,98353.59
2022-09-09T06:32:05.918Z,98355.25
2022-09-09T06:34:34.030Z,98349.81
2022-09-09T06:37:02.299Z,98355.47
2022-09-09T06:39:45.913Z,98346.25
2022-09-09T06:42:13.719Z,98345.50
2022-09-09T06:44:57.999Z,98349.16
2022-09-09T06:47:36.552Z,98347.09
2022-09-09T06:50:08.389Z,98360.84
2022-09-09T06:52:37.221Z,98344.84
2022-09-09T06:55:09.292Z,98351.44
2022-09-09T06:57:40.182Z,98346.75
2022-09-09T07:00:15.360Z,98352.69
2022-09-09T07:02:43.362Z,98351.72
2022-09-09T07:05:12.685Z,98353.28
2022-09-09T07:07:42.809Z,98343.41
2022-09-09T07:10:13.905Z,98341.31
2022-09-09T07:12:41.720Z,98350.38
2022-09-09T07:15:12.346Z,98347.00
2022-09-09T07:17:44.232Z,98344.13
2022-09-09T07:20:12.506Z,98354.22
2022-09-09T07:22:42.949Z,98353.94
2022-09-09T07:25:12.413Z,98353.03
2022-09-09T07:27:41.653Z,98353.63
2022-09-09T07:30:10.968Z,98357.22
2022-09-09T07:32:40.737Z,98346.47
2022-09-09T07:35:09.193Z,98348.13
2022-09-09T07:37:38.716Z,98348.25
2022-09-09T07:40:07.663Z,98349.66
2022-09-09T07:42:36.411Z,98344.50
2022-09-09T07:45:10.518Z,98342.91
2022-09-09T07:47:38.607Z,98344.22
2022-09-09T07:50:07.133Z,98347.88
2022-09-09T07:52:36.112Z,98352.50
2022-09-09T07:55:07.446Z,98355.84
2022-09-09T07:57:35.317Z,98357.44
2022-09-09T08:00:05.992Z,98360.03
2022-09-09T08:02:41.537Z,98347.00
2022-09-09T08:05:13.599Z,98343.06
2022-09-09T08:07:41.982Z,98329.78
2022-09-09T08:10:10.211Z,98327.69
2022-09-09T08:12:47.708Z,98353.88
2022-09-09T08:15:24.450Z,98354.50
2022-09-09T08:17:53.605Z,98352.63
2022-09-09T08:20:21.365Z,98342.84
2022-09-09T08:22:50.844Z,98343.09
2022-09-09T08:25:18.705Z,98354.69
2022-09-09T08:27:46.660Z,98356.25
2022-09-09T08:30:15.062Z,98367.53
2022-09-09T08:32:45.934Z,98365.84
2022-09-09T08:35:15.941Z,98368.94
2022-09-09T08:37:43.797Z,98366.09
2022-09-09T08:40:24.154Z,98365.03
2022-09-09T08:42:58.073Z,98359.06
2022-09-09T08:45:40.238Z,98354.72
2022-09-09T08:48:19.979Z,98360.13
2022-09-09T08:50:53.027Z,98351.31
2022-09-09T08:53:31.336Z,98353.03
2022-09-09T08:56:05.499Z,98352.84
2022-09-09T08:58:49.791Z,98357.19
2022-09-09T09:01:40.525Z,98360.34
2022-09-09T09:04:22.724Z,98358.88
2022-09-09T09:07:03.557Z,98353.34
2022-09-09T09:09:46.246Z,98349.09
2022-09-09T09:12:20.429Z,98354.91
2022-09-09T09:14:49.938Z,98355.78
2022-09-09T09:17:21.454Z,98348.69
2022-09-09T09:19:51.633Z,98350.22
2022-09-09T09:22:23.249Z,98356.78
2022-09-09T09:24:57.796Z,98357.22
2022-09-09T09:27:34.066Z,98359.25
2022-09-09T09:30:26.811Z,98358.41
2022-09-09T09:33:03.257Z,98363.53
2022-09-09T09:35:31.799Z,98365.81
2022-09-09T09:40:53.935Z,98368.19
2022-09-09T09:43:26.271Z,98364.47
2022-09-09T09:46:14.360Z,98359.66
2022-09-09T09:48:42.087Z,98358.13
2022-09-09T09:51:16.487Z,98333.50
2022-09-09T09:53:47.313Z,98341.84
2022-09-09T09:56:17.174Z,98336.00
2022-09-09T09:58:52.520Z,98339.97
2022-09-09T10:01:28.677Z,98339.47
2022-09-09T10:04:00.989Z,98330.47
2022-09-09T10:06:34.048Z,98324.16
2022-09-09T10:09:05.382Z,98324.31
2022-09-09T10:11:46.674Z,98324.41
2022-09-09T10:14:22.720Z,98325.47
2022-09-09T10:17:04.061Z,98307.78
2022-09-09T10:19:34.571Z,98312.22
2022-09-09T10:22:18.384Z,98313.75
2022-09-09T10:25:08.853Z,98299.78
2022-09-09T10:27:47.934Z,98301.75
2022-09-09T10:30:20.418Z,98304.59
2022-09-09T10:32:53.037Z,98307.63
2022-09-09T10:35:29.255Z,98312.88
2022-09-09T10:38:14.789Z,98315.75
2022-09-09T10:41:03.527Z,98317.56
2022-09-09T10:43:56.356Z,98323.81
2022-09-09T10:46:36.974Z,98312.66
2022-09-09T10:49:22.996Z,98306.00
2022-09-09T10:51:59.929Z,98311.13
2022-09-09T10:54:52.609Z,98309.13
2022-09-09T10:57:31.257Z,98298.00
2022-09-09T11:00:05.295Z,98297.69
2022-09-09T11:02:35.508Z,98313.16
2022-09-09T11:05:10.821Z,98304.88
2022-09-09T11:07:44.141Z,98313.47
2022-09-09T11:10:25.239Z,98314.59
2022-09-09T11:13:00.103Z,98322.75
2022-09-09T11:15:33.615Z,98323.13
2022-09-09T11:18:03.821Z,98338.06
2022-09-09T11:20:33.131Z,98333.72
2022-09-09T11:23:06.265Z,98338.00
2022-09-09T11:25:39.097Z,98343.09
2022-09-09T11:28:32.107Z,98347.81
2022-09-09T11:31:23.535Z,98368.34
2022-09-09T11:34:05.263Z,98367.78
2022-09-09T11:36:49.387Z,98374.31
2022-09-09T11:39:38.493Z,98376.03
2022-09-09T11:42:17.668Z,98374.38
2022-09-09T11:44:47.263Z,98354.69
2022-09-09T11:47:25.507Z,98366.81
2022-09-09T11:49:54.609Z,98362.31
2022-09-09T11:52:26.604Z,98359.41
2022-09-09T11:54:57.340Z,98357.88
2022-09-09T11:57:32.834Z,98356.22
2022-09-09T12:00:02.040Z,98345.84
2022-09-09T12:02:50.561Z,98352.13
2022-09-09T12:05:20.860Z,98340.13
2022-09-09T12:07:55.639Z,98332.38
2022-09-09T12:10:28.859Z,98333.91
2022-09-09T12:12:56.704Z,98336.56
2022-09-09T12:15:30.221Z,98344.44
2022-09-09T12:18:03.844Z,98343.94
2022-09-09T12:20:37.422Z,98333.31
2022-09-09T12:23:26.086Z,98328.94
2022-09-09T12:26:06.638Z,98331.00
2022-09-09T12:28:49.913Z,98324.53
2022-09-09T12:31:26.877Z,98330.19
2022-09-09T12:33:54.649Z,98325.59
2022-09-09T12:36:26.915Z,98319.22
2022-09-09T12:38:55.711Z,98327.47
2022-09-09T12:41:26.274Z,98328.47
2022-09-09T12:44:06.903Z,98324.75
2022-09-09T12:46:38.559Z,98326.03
2022-09-09T12:49:07.534Z,98326.63
2022-09-09T12:51:36.110Z,98314.19
2022-09-09T12:54:05.234Z,98306.28
2022-09-09T12:56:35.099Z,98301.75
2022-09-09T12:59:03.180Z,98298.47
2022-09-09T13:01:33.272Z,98288.72
2022-09-09T13:04:02.779Z,98287.03
2022-09-09T13:06:32.291Z,98293.19
2022-09-09T13:09:01.518Z,98291.03
2022-09-09T13:11:34.034Z,98288.94
2022-09-09T13:14:02.014Z,98288.84
2022-09-09T13:16:32.862Z,98281.34
2022-09-09T13:19:08.978Z,98286.38
2022-09-09T13:21:41.287Z,98283.16
2022-09-09T13:24:28.397Z,98271.63
2022-09-09T13:26:58.429Z,98277.03
2022-09-09T13:29:26.730Z,98280.78
2022-09-09T13:31:56.672Z,98282.00
2022-09-09T13:34:31.937Z,98272.09
2022-09-09T13:37:03.577Z,98273.47
2022-09-09T13:39:31.709Z,98271.00
2022-09-09T13:41:59.814Z,98273.88
2022-09-09T13:44:31.037Z,98263.81
2022-09-09T13:47:09.412Z,98262.03
2022-09-09T13:49:39.541Z,98268.84
2022-09-09T13:52:12.065Z,98260.00
2022-09-09T13:54:40.254Z,98262.78
2022-09-09T13:57:15.944Z,98254.13
2022-09-09T14:00:01.620Z,98251.53
2022-09-09T14:02:32.086Z,98264.06
2022-09-09T14:05:03.815Z,98248.63
2022-09-09T14:07:31.668Z,98251.84
2022-09-09T14:10:01.090Z,98257.47
2022-09-09T14:12:29.087Z,98251.13
2022-09-09T14:15:00.648Z,98247.38
2022-09-09T14:17:32.138Z,98254.13
2022-09-09T14:20:00.249Z,98266.78
2022-09-09T14:22:29.477Z,98247.75
2022-09-09T14:24:58.538Z,98246.22
2022-09-09T14:27:26.886Z,98247.59
2022-09-09T14:29:55.440Z,98244.88
2022-09-09T14:32:23.244Z,98238.75
2022-09-09T14:34:51.549Z,98246.56
2022-09-09T14:37:20.095Z,98243.75
2022-09-09T14:39:52.393Z,98241.34
2022-09-09T14:42:20.890Z,98252.81
2022-09-09T14:44:48.798Z,98249.16
2022-09-09T14:47:16.541Z,98246.28
2022-09-09T14:49:46.577Z,98251.84
2022-09-09T14:52:17.580Z,98238.94
2022-09-09T14:54:45.426Z,98253.22
2022-09-09T14:57:14.850Z,98249.75
2022-09-09T14:59:42.624Z,98255.59
2022-09-09T15:02:11.415Z,98248.31
2022-09-09T15:04:39.294Z,98258.22
2022-09-09T15:07:07.157Z,98251.72
2022-09-09T15:09:38.243Z,98254.44
2022-09-09T15:12:06.644Z,98261.53
2022-09-09T15:14:36.173Z,98262.06
2022-09-09T15:17:04.009Z,98257.88
2022-09-09T15:19:33.342Z,98270.81
2022-09-09T15:22:01.434Z,98269.84
2022-09-09T15:24:29.653Z,98275.53
2022-09-09T15:26:57.583Z,98271.97
2022-09-09T15:29:25.420Z,98264.53
2022-09-09T15:31:55.350Z,98268.09
2022-09-09T15:34:26.420Z,98263.69
2022-09-09T15:36:56.304Z,98258.28
2022-09-09T15:39:24.213Z,98257.25
2022-09-09T15:41:52.133Z,98257.06
2022-09-09T15:44:20.823Z,98259.13
2022-09-09T15:46:52.320Z,98260.75
2022-09-09T15:49:24.221Z,98266.09
2022-09-09T15:51:54.346Z,98273.91
2022-09-09T15:54:24.770Z,98267.06
2022-09-09T15:56:55.814Z,98260.22
2022-09-09T15:59:26.674Z,98258.34
2022-09-09T16:01:55.457Z,98267.06
2022-09-09T16:04:26.290Z,98263.28
2022-09-09T16:06:55.638Z,98266.88
2022-09-09T16:09:23.777Z,98261.25
2022-09-09T16:11:52.905Z,98275.56
2022-09-09T16:14:20.976Z,98278.69
2022-09-09T16:16:49.225Z,98278.28
2022-09-09T16:19:19.763Z,98285.13
2022-09-09T16:21:50.531Z,98293.75
2022-09-09T16:24:20.390Z,98290.38
2022-09-09T16:26:50.050Z,98318.72
2022-09-09T16:29:19.425Z,98320.88
2022-09-09T16:31:49.201Z,98322.91
2022-09-09T16:34:18.318Z,98325.88
2022-09-09T16:36:47.164Z,98338.66
2022-09-09T16:39:17.533Z,98340.75
2022-09-09T16:41:46.968Z,98345.25
2022-09-09T16:44:16.560Z,98343.19
2022-09-09T16:46:45.520Z,98345.00
2022-09-09T16:49:15.718Z,98338.75
2022-09-09T16:51:45.658Z,98351.91
2022-09-09T16:54:14.827Z,98354.16
2022-09-09T16:56:46.168Z,98351.19
2022-09-09T16:59:17.825Z,98352.94
2022-09-09T17:01:47.829Z,98357.59
2022-09-09T17:04:22.124Z,98353.22
2022-09-09T17:06:51.972Z,98339.41
2022-09-09T17:09:21.135Z,98344.47
2022-09-09T17:11:51.740Z,98342.47
2022-09-09T17:14:22.997Z,98342.66
2022-09-09T17:16:52.131Z,98344.25
2022-09-09T17:19:21.936Z,98350.84
2022-09-09T17:22:14.872Z,98333.66
2022-09-09T17:24:41.309Z,98333.41
2022-09-09T17:27:11.033Z,98341.09
2022-09-09T17:29:42.493Z,98342.88
2022-09-09T17:32:11.215Z,98345.25
2022-09-09T17:34:42.860Z,98342.38
2022-09-09T17:37:12.345Z,98346.81
2022-09-09T17:39:40.190Z,98344.16
2022-09-09T17:42:08.768Z,98340.69
2022-09-09T17:44:38.112Z,98351.97
2022-09-09T17:47:07.085Z,98350.59
2022-09-09T17:49:34.940Z,98355.28
2022-09-09T17:52:02.918Z,98360.28
2022-09-09T17:54:30.774Z,98355.38
2022-09-09T17:57:00.321Z,98359.66
2022-09-09T17:59:30.196Z,98358.25
2022-09-09T18:01:59.473Z,98355.91
2022-09-09T18:04:27.383Z,98362.53
2022-09-09T18:06:58.266Z,98353.84
2022-09-09T18:09:29.246Z,98364.09
2022-09-09T18:11:59.041Z,98355.63
2022-09-09T18:14:30.121Z,98367.44
2022-09-09T18:17:00.147Z,98369.56
2022-09-09T18:19:30.674Z,98369.78
2022-09-09T18:22:01.774Z,98378.94
2022-09-09T18:24:30.859Z,98380.69
2022-09-09T18:26:58.787Z,98388.47
2022-09-09T18:29:26.890Z,98394.16
2022-09-09T18:31:55.995Z,98393.66
2022-09-09T18:34:28.514Z,98400.09
2022-09-09T18:36:56.854Z,98405.75
2022-09-09T18:39:27.655Z,98403.72
2022-09-09T18:41:56.733Z,98403.84
2022-09-09T18:44:27.133Z,98412.34
2022-09-09T18:46:55.659Z,98412.75
2022-09-09T18:49:25.571Z,98416.56
2022-09-09T18:51:54.161Z,98419.19
2022-09-09T18:54:23.901Z,98422.88
2022-09-09T18:56:52.912Z,98427.84
2022-09-09T18:59:23.693Z,98428.97
2022-09-09T19:01:53.206Z,98422.91
2022-09-09T19:04:22.246Z,98420.69
2022-09-09T19:06:57.640Z,98426.03
2022-09-09T19:09:27.574Z,98429.47
2022-09-09T19:11:55.451Z,98422.44
2022-09-09T19:14:23.558Z,98422.47
2022-09-09T19:16:51.683Z,98415.13
2022-09-09T19:19:21.485Z,98415.81
2022-09-09T19:21:51.540Z,98418.50
2022-09-09T19:24:21.365Z,98411.19
2022-09-09T19:26:55.189Z,98428.22
2022-09-09T19:29:25.935Z,98428.00
2022-09-09T19:34:45.701Z,98422.53
2022-09-09T19:37:18.525Z,98436.91
2022-09-09T19:39:50.842Z,98435.72
2022-09-09T19:42:19.235Z,98437.00
2022-09-09T19:45:48.837Z,98435.47
2022-09-09T19:48:16.897Z,98442.38
2022-09-09T19:50:47.600Z,98440.53
2022-09-09T19:53:17.917Z,98444.91
2022-09-09T19:55:46.182Z,98445.78
2022-09-09T19:58:15.027Z,98442.91
2022-09-09T20:00:58.508Z,98448.63
2022-09-09T20:03:28.280Z,98452.81
2022-09-09T20:05:57.063Z,98453.97
2022-09-09T20:08:27.338Z,98455.31
2022-09-09T20:10:56.285Z,98449.09
2022-09-09T20:13:24.371Z,98453.31
2022-09-09T20:15:58.648Z,98459.28
2022-09-09T20:18:32.254Z,98464.84
2022-09-09T20:21:01.013Z,98469.03
2022-09-09T20:23:32.283Z,98460.31
2022-09-09T20:26:02.996Z,98455.63
2022-09-09T20:28:31.261Z,98464.84
2022-09-09T20:31:05.824Z,98466.34
2022-09-09T20:33:35.823Z,98469.53
2022-09-09T20:36:11.504Z,98469.34
2022-09-09T20:38:54.179Z,98473.34
2022-09-09T20:41:23.666Z,98463.34
2022-09-09T20:43:53.542Z,98469.22
2022-09-09T20:46:49.109Z,98472.03
2022-09-09T20:49:25.628Z,98470.38
2022-09-09T20:52:09.429Z,98478.06
2022-09-09T20:54:48.578Z,98476.91
2022-09-09T20:57:22.074Z,98480.75
2022-09-09T20:59:51.052Z,98476.03
2022-09-09T21:02:19.418Z,98481.22
2022-09-09T21:04:47.356Z,98480.38
2022-09-09T21:07:15.292Z,98483.69
2022-09-09T21:09:43.135Z,98472.38
2022-09-09T21:12:12.301Z,98481.09
2022-09-09T21:14:40.219Z,98470.72
2022-09-09T21:17:08.394Z,98475.41
2022-09-09T21:19:36.288Z,98462.84
2022-09-09T21:22:04.507Z,98474.03
2022-09-09T21:24:32.290Z,98466.19
2022-09-09T21:27:00.700Z,98466.19
2022-09-09T21:29:29.993Z,98472.88
2022-09-09T21:32:03.805Z,98474.72
2022-09-09T21:34:32.086Z,98475.78
2022-09-09T21:37:00.203Z,98477.00
2022-09-09T21:39:28.066Z,98474.81
2022-09-09T21:41:58.150Z,98481.66
2022-09-09T21:44:26.911Z,98475.47
2022-09-09T21:46:56.183Z,98477.00
2022-09-09T21:49:24.011Z,98471.34
2022-09-09T21:51:52.326Z,98482.25
2022-09-09T21:54:20.629Z,98482.66
2022-09-09T21:56:52.251Z,98481.19
2022-09-09T21:59:20.450Z,98484.06
2022-09-09T22:01:48.702Z,98485.13
2022-09-09T22:04:17.938Z,98487.09
2022-09-09T22:06:46.607Z,98487.94
2022-09-09T22:09:14.448Z,98480.66
2022-09-09T22:11:42.614Z,98480.16
2022-09-09T22:14:10.515Z,98488.69
2022-09-09T22:16:45.753Z,98478.84
2022-09-09T22:19:13.995Z,98483.34
2022-09-09T22:21:45.481Z,98477.72
2022-09-09T22:24:13.598Z,98474.72
2022-09-09T22:26:42.409Z,98463.50
2022-09-09T22:29:11.385Z,98471.69
2022-09-09T22:31:39.486Z,98473.53
2022-09-09T22:34:09.170Z,98472.38
2022-09-09T22:36:42.118Z,98475.03
2022-09-09T22:39:13.928Z,98472.38
2022-09-09T22:41:42.650Z,98489.34
2022-09-09T22:44:11.128Z,98487.66
2022-09-09T22:46:39.851Z,98488.03
2022-09-09T22:49:10.892Z,98494.75
2022-09-09T22:51:38.869Z,98492.88
2022-09-09T22:54:08.034Z,98493.09
2022-09-09T22:56:37.589Z,98503.56
2022-09-09T22:59:05.843Z,98522.16
2022-09-09T23:01:35.169Z,98537.44
2022-09-09T23:04:03.368Z,98523.28
2022-09-09T23:06:33.894Z,98532.50
2022-09-09T23:09:03.721Z,98536.19
2022-09-09T23:11:34.266Z,98533.13
2022-09-09T23:14:05.439Z,98525.31
2022-09-09T23:16:36.069Z,98524.09
2022-09-09T23:19:03.965Z,98527.44
2022-09-09T23:21:33.120Z,98526.34
2022-09-09T23:24:01.736Z,98524.84
2022-09-09T23:26:29.788Z,98521.38
2022-09-09T23:28:59.201Z,98515.75
2022-09-09T23:31:30.136Z,98516.06
2022-09-09T23:33:59.095Z,98519.25
2022-09-09T23:36:29.445Z,98516.06
2022-09-09T23:38:58.367Z,98510.69
2022-09-09T23:41:26.960Z,98520.94
2022-09-09T23:43:55.327Z,98515.84
2022-09-09T23:46:25.167Z,98514.88
2022-09-09T23:48:57.817Z,98516.94
2022-09-09T23:51:28.127Z,98506.44
2022-09-09T23:53:57.541Z,98516.44
2022-09-09T23:56:28.141Z,98512.34
2022-09-09T23:58:56.415Z,98506.66
